sensor_id;sensor_type;location;lat;lon;timestamp;temperature;humidity
53978;DHT22;39886;47.984;-1.586;2023-03-01T00:02:07;20.00;50.90
53978;DHT22;39886;47.984;-1.586;2023-03-01T00:04:33;20.00;50.90
53978;DHT22;39886;47.984;-1.586;2023-03-01T00:07:01;20.00;50.90
53978;DHT22;39886;47.984;-1.586;2023-03-01T00:09:26;20.00;50.80
53978;DHT22;39886;47.984;-1.586;2023-03-01T00:11:52;20.00;50.80
53978;DHT22;39886;47.984;-1.586;2023-03-01T00:14:18;20.00;50.80
53978;DHT22;39886;47.984;-1.586;2023-03-01T00:16:45;20.00;50.70
53978;DHT22;39886;47.984;-1.586;2023-03-01T00:19:16;20.00;50.70
53978;DHT22;39886;47.984;-1.586;2023-03-01T00:21:43;20.00;50.70
53978;DHT22;39886;47.984;-1.586;2023-03-01T00:24:09;20.00;50.70
53978;DHT22;39886;47.984;-1.586;2023-03-01T00:26:36;20.00;50.70
53978;DHT22;39886;47.984;-1.586;2023-03-01T00:29:02;20.00;50.60
53978;DHT22;39886;47.984;-1.586;2023-03-01T00:31:29;20.00;50.70
53978;DHT22;39886;47.984;-1.586;2023-03-01T00:33:57;20.00;50.60
53978;DHT22;39886;47.984;-1.586;2023-03-01T00:36:25;20.00;50.60
53978;DHT22;39886;47.984;-1.586;2023-03-01T00:38:51;20.00;50.60
53978;DHT22;39886;47.984;-1.586;2023-03-01T00:41:19;20.00;50.60
53978;DHT22;39886;47.984;-1.586;2023-03-01T00:43:45;20.00;50.60
53978;DHT22;39886;47.984;-1.586;2023-03-01T00:46:13;20.00;50.60
53978;DHT22;39886;47.984;-1.586;2023-03-01T00:48:39;20.00;50.50
53978;DHT22;39886;47.984;-1.586;2023-03-01T00:51:10;20.00;50.60
53978;DHT22;39886;47.984;-1.586;2023-03-01T00:53:36;20.10;50.60
53978;DHT22;39886;47.984;-1.586;2023-03-01T00:56:03;20.10;50.60
53978;DHT22;39886;47.984;-1.586;2023-03-01T00:58:30;20.00;50.50
53978;DHT22;39886;47.984;-1.586;2023-03-01T01:00:56;20.00;50.50
53978;DHT22;39886;47.984;-1.586;2023-03-01T01:03:22;20.10;50.50
53978;DHT22;39886;47.984;-1.586;2023-03-01T01:05:53;20.10;50.50
53978;DHT22;39886;47.984;-1.586;2023-03-01T01:08:19;20.00;50.40
53978;DHT22;39886;47.984;-1.586;2023-03-01T01:10:46;20.00;50.40
53978;DHT22;39886;47.984;-1.586;2023-03-01T01:13:12;20.00;50.40
53978;DHT22;39886;47.984;-1.586;2023-03-01T01:15:39;20.00;50.40
53978;DHT22;39886;47.984;-1.586;2023-03-01T01:18:05;20.00;50.40
53978;DHT22;39886;47.984;-1.586;2023-03-01T01:20:31;20.00;50.40
53978;DHT22;39886;47.984;-1.586;2023-03-01T01:22:56;20.00;50.30
53978;DHT22;39886;47.984;-1.586;2023-03-01T01:25:22;20.00;50.30
53978;DHT22;39886;47.984;-1.586;2023-03-01T01:27:50;20.00;50.30
53978;DHT22;39886;47.984;-1.586;2023-03-01T01:30:16;20.00;50.30
53978;DHT22;39886;47.984;-1.586;2023-03-01T01:32:42;20.00;50.30
53978;DHT22;39886;47.984;-1.586;2023-03-01T01:35:08;20.00;50.30
53978;DHT22;39886;47.984;-1.586;2023-03-01T01:37:34;20.00;50.30
53978;DHT22;39886;47.984;-1.586;2023-03-01T01:40:01;20.00;50.30
53978;DHT22;39886;47.984;-1.586;2023-03-01T01:42:29;20.00;50.20
53978;DHT22;39886;47.984;-1.586;2023-03-01T01:45:28;20.00;50.20
53978;DHT22;39886;47.984;-1.586;2023-03-01T01:48:16;20.00;50.20
53978;DHT22;39886;47.984;-1.586;2023-03-01T01:50:43;20.00;50.20
53978;DHT22;39886;47.984;-1.586;2023-03-01T01:53:13;20.00;50.20
53978;DHT22;39886;47.984;-1.586;2023-03-01T01:55:44;20.00;50.20
53978;DHT22;39886;47.984;-1.586;2023-03-01T01:58:12;20.00;50.20
53978;DHT22;39886;47.984;-1.586;2023-03-01T02:00:40;20.00;50.10
53978;DHT22;39886;47.984;-1.586;2023-03-01T02:03:10;20.00;50.10
53978;DHT22;39886;47.984;-1.586;2023-03-01T02:05:42;20.00;50.10
53978;DHT22;39886;47.984;-1.586;2023-03-01T02:08:10;20.00;50.10
53978;DHT22;39886;47.984;-1.586;2023-03-01T02:10:37;20.00;50.20
53978;DHT22;39886;47.984;-1.586;2023-03-01T02:13:04;20.00;50.10
53978;DHT22;39886;47.984;-1.586;2023-03-01T02:15:34;20.00;50.10
53978;DHT22;39886;47.984;-1.586;2023-03-01T02:18:01;20.00;50.10
53978;DHT22;39886;47.984;-1.586;2023-03-01T02:23:00;20.00;50.00
53978;DHT22;39886;47.984;-1.586;2023-03-01T02:25:36;20.00;50.00
53978;DHT22;39886;47.984;-1.586;2023-03-01T02:30:43;20.00;50.00
53978;DHT22;39886;47.984;-1.586;2023-03-01T02:33:29;20.00;50.00
53978;DHT22;39886;47.984;-1.586;2023-03-01T02:36:08;20.00;50.00
53978;DHT22;39886;47.984;-1.586;2023-03-01T02:38:34;20.00;49.90
53978;DHT22;39886;47.984;-1.586;2023-03-01T02:41:02;20.00;49.90
53978;DHT22;39886;47.984;-1.586;2023-03-01T02:43:31;20.00;49.90
53978;DHT22;39886;47.984;-1.586;2023-03-01T02:45:59;20.00;49.90
53978;DHT22;39886;47.984;-1.586;2023-03-01T02:48:27;20.00;49.90
53978;DHT22;39886;47.984;-1.586;2023-03-01T02:53:23;20.00;49.90
53978;DHT22;39886;47.984;-1.586;2023-03-01T02:55:53;20.00;49.90
53978;DHT22;39886;47.984;-1.586;2023-03-01T02:58:19;20.00;49.90
53978;DHT22;39886;47.984;-1.586;2023-03-01T03:00:46;20.00;49.80
53978;DHT22;39886;47.984;-1.586;2023-03-01T03:03:16;20.00;49.80
53978;DHT22;39886;47.984;-1.586;2023-03-01T03:05:42;20.00;49.80
53978;DHT22;39886;47.984;-1.586;2023-03-01T03:08:08;20.00;49.70
53978;DHT22;39886;47.984;-1.586;2023-03-01T03:10:38;20.00;49.70
53978;DHT22;39886;47.984;-1.586;2023-03-01T03:13:14;20.00;49.70
53978;DHT22;39886;47.984;-1.586;2023-03-01T03:15:42;20.00;49.70
53978;DHT22;39886;47.984;-1.586;2023-03-01T03:18:11;20.00;49.70
53978;DHT22;39886;47.984;-1.586;2023-03-01T03:20:40;20.00;49.70
53978;DHT22;39886;47.984;-1.586;2023-03-01T03:23:06;20.00;49.70
53978;DHT22;39886;47.984;-1.586;2023-03-01T03:25:32;20.00;49.70
53978;DHT22;39886;47.984;-1.586;2023-03-01T03:27:58;20.00;49.70
53978;DHT22;39886;47.984;-1.586;2023-03-01T03:30:27;20.00;49.70
53978;DHT22;39886;47.984;-1.586;2023-03-01T03:32:54;20.00;49.70
53978;DHT22;39886;47.984;-1.586;2023-03-01T03:37:49;20.00;49.60
53978;DHT22;39886;47.984;-1.586;2023-03-01T03:40:33;20.00;49.60
53978;DHT22;39886;47.984;-1.586;2023-03-01T03:42:59;20.00;49.60
53978;DHT22;39886;47.984;-1.586;2023-03-01T03:45:25;20.00;49.60
53978;DHT22;39886;47.984;-1.586;2023-03-01T03:47:51;20.00;49.60
53978;DHT22;39886;47.984;-1.586;2023-03-01T03:50:17;20.00;49.60
53978;DHT22;39886;47.984;-1.586;2023-03-01T03:52:43;20.00;49.60
53978;DHT22;39886;47.984;-1.586;2023-03-01T03:55:11;20.00;49.60
53978;DHT22;39886;47.984;-1.586;2023-03-01T03:57:38;20.00;49.50
53978;DHT22;39886;47.984;-1.586;2023-03-01T04:00:06;20.00;49.50
53978;DHT22;39886;47.984;-1.586;2023-03-01T04:02:41;20.00;49.50
53978;DHT22;39886;47.984;-1.586;2023-03-01T04:05:08;20.00;49.50
53978;DHT22;39886;47.984;-1.586;2023-03-01T04:07:38;20.00;50.10
53978;DHT22;39886;47.984;-1.586;2023-03-01T04:10:05;20.00;49.50
53978;DHT22;39886;47.984;-1.586;2023-03-01T04:12:33;20.00;49.50
53978;DHT22;39886;47.984;-1.586;2023-03-01T04:15:04;20.00;49.50
53978;DHT22;39886;47.984;-1.586;2023-03-01T04:17:45;20.00;49.50
53978;DHT22;39886;47.984;-1.586;2023-03-01T04:20:15;20.00;49.50
53978;DHT22;39886;47.984;-1.586;2023-03-01T04:22:57;20.00;49.50
53978;DHT22;39886;47.984;-1.586;2023-03-01T04:25:23;19.90;49.50
53978;DHT22;39886;47.984;-1.586;2023-03-01T04:27:49;19.90;49.40
53978;DHT22;39886;47.984;-1.586;2023-03-01T04:30:15;19.90;49.40
53978;DHT22;39886;47.984;-1.586;2023-03-01T04:32:41;19.90;50.00
53978;DHT22;39886;47.984;-1.586;2023-03-01T04:35:08;19.90;49.30
53978;DHT22;39886;47.984;-1.586;2023-03-01T04:37:33;20.00;49.40
53978;DHT22;39886;47.984;-1.586;2023-03-01T04:40:03;19.90;49.30
53978;DHT22;39886;47.984;-1.586;2023-03-01T04:42:42;19.90;49.30
53978;DHT22;39886;47.984;-1.586;2023-03-01T04:45:08;19.90;49.30
53978;DHT22;39886;47.984;-1.586;2023-03-01T04:47:42;19.90;49.30
53978;DHT22;39886;47.984;-1.586;2023-03-01T04:50:12;19.90;49.30
53978;DHT22;39886;47.984;-1.586;2023-03-01T04:52:38;19.90;49.20
53978;DHT22;39886;47.984;-1.586;2023-03-01T04:55:04;19.90;49.20
53978;DHT22;39886;47.984;-1.586;2023-03-01T04:57:30;19.90;49.10
53978;DHT22;39886;47.984;-1.586;2023-03-01T04:59:56;19.90;49.20
53978;DHT22;39886;47.984;-1.586;2023-03-01T05:02:22;19.90;49.20
53978;DHT22;39886;47.984;-1.586;2023-03-01T05:04:48;19.90;49.20
53978;DHT22;39886;47.984;-1.586;2023-03-01T05:07:13;19.90;49.20
53978;DHT22;39886;47.984;-1.586;2023-03-01T05:09:45;19.90;49.10
53978;DHT22;39886;47.984;-1.586;2023-03-01T05:12:12;19.90;49.10
53978;DHT22;39886;47.984;-1.586;2023-03-01T05:14:37;19.90;49.10
53978;DHT22;39886;47.984;-1.586;2023-03-01T05:17:04;19.90;49.10
53978;DHT22;39886;47.984;-1.586;2023-03-01T05:19:31;19.90;49.00
53978;DHT22;39886;47.984;-1.586;2023-03-01T05:21:57;19.90;49.10
53978;DHT22;39886;47.984;-1.586;2023-03-01T05:24:34;19.90;49.10
53978;DHT22;39886;47.984;-1.586;2023-03-01T05:27:01;19.90;49.10
53978;DHT22;39886;47.984;-1.586;2023-03-01T05:29:28;19.90;49.10
53978;DHT22;39886;47.984;-1.586;2023-03-01T05:31:59;19.90;49.00
53978;DHT22;39886;47.984;-1.586;2023-03-01T05:34:32;19.90;49.00
53978;DHT22;39886;47.984;-1.586;2023-03-01T05:36:59;19.80;49.00
53978;DHT22;39886;47.984;-1.586;2023-03-01T05:39:27;19.90;49.00
53978;DHT22;39886;47.984;-1.586;2023-03-01T05:41:55;19.90;49.00
53978;DHT22;39886;47.984;-1.586;2023-03-01T05:44:21;19.90;49.00
53978;DHT22;39886;47.984;-1.586;2023-03-01T05:46:47;19.90;49.00
53978;DHT22;39886;47.984;-1.586;2023-03-01T05:49:13;19.90;49.00
53978;DHT22;39886;47.984;-1.586;2023-03-01T05:51:40;19.90;49.00
53978;DHT22;39886;47.984;-1.586;2023-03-01T05:54:07;19.90;49.00
53978;DHT22;39886;47.984;-1.586;2023-03-01T05:56:36;19.80;48.90
53978;DHT22;39886;47.984;-1.586;2023-03-01T05:59:03;19.90;49.00
53978;DHT22;39886;47.984;-1.586;2023-03-01T06:01:34;19.90;49.00
53978;DHT22;39886;47.984;-1.586;2023-03-01T06:04:00;19.90;48.90
53978;DHT22;39886;47.984;-1.586;2023-03-01T06:06:26;19.90;48.90
53978;DHT22;39886;47.984;-1.586;2023-03-01T06:08:53;19.90;49.00
53978;DHT22;39886;47.984;-1.586;2023-03-01T06:11:19;19.90;49.00
53978;DHT22;39886;47.984;-1.586;2023-03-01T06:13:46;19.80;48.90
53978;DHT22;39886;47.984;-1.586;2023-03-01T06:16:12;19.90;48.90
53978;DHT22;39886;47.984;-1.586;2023-03-01T06:18:39;19.90;48.90
53978;DHT22;39886;47.984;-1.586;2023-03-01T06:21:05;19.80;48.90
53978;DHT22;39886;47.984;-1.586;2023-03-01T06:23:32;19.90;48.90
53978;DHT22;39886;47.984;-1.586;2023-03-01T06:25:57;19.80;49.10
53978;DHT22;39886;47.984;-1.586;2023-03-01T06:28:23;19.80;48.90
53978;DHT22;39886;47.984;-1.586;2023-03-01T06:30:52;19.80;48.90
53978;DHT22;39886;47.984;-1.586;2023-03-01T06:33:19;19.90;48.90
53978;DHT22;39886;47.984;-1.586;2023-03-01T06:35:50;19.90;48.90
53978;DHT22;39886;47.984;-1.586;2023-03-01T06:38:16;19.80;48.80
53978;DHT22;39886;47.984;-1.586;2023-03-01T06:40:44;19.80;48.80
53978;DHT22;39886;47.984;-1.586;2023-03-01T06:43:10;19.80;48.80
53978;DHT22;39886;47.984;-1.586;2023-03-01T06:45:36;19.80;48.80
53978;DHT22;39886;47.984;-1.586;2023-03-01T06:48:04;19.90;49.50
53978;DHT22;39886;47.984;-1.586;2023-03-01T06:50:30;19.80;48.80
53978;DHT22;39886;47.984;-1.586;2023-03-01T06:52:56;19.80;48.70
53978;DHT22;39886;47.984;-1.586;2023-03-01T06:55:22;19.80;48.70
53978;DHT22;39886;47.984;-1.586;2023-03-01T06:57:48;19.80;48.70
53978;DHT22;39886;47.984;-1.586;2023-03-01T07:00:14;19.90;48.80
53978;DHT22;39886;47.984;-1.586;2023-03-01T07:02:40;19.80;48.80
53978;DHT22;39886;47.984;-1.586;2023-03-01T07:05:06;19.80;48.70
53978;DHT22;39886;47.984;-1.586;2023-03-01T07:07:32;19.80;48.70
53978;DHT22;39886;47.984;-1.586;2023-03-01T07:09:57;19.90;48.80
53978;DHT22;39886;47.984;-1.586;2023-03-01T07:12:23;19.80;48.70
53978;DHT22;39886;47.984;-1.586;2023-03-01T07:15:26;19.80;48.60
53978;DHT22;39886;47.984;-1.586;2023-03-01T07:17:52;19.80;48.70
53978;DHT22;39886;47.984;-1.586;2023-03-01T07:20:19;19.80;48.70
53978;DHT22;39886;47.984;-1.586;2023-03-01T07:22:50;19.90;48.80
53978;DHT22;39886;47.984;-1.586;2023-03-01T07:25:16;19.80;48.70
53978;DHT22;39886;47.984;-1.586;2023-03-01T07:27:41;19.90;48.70
53978;DHT22;39886;47.984;-1.586;2023-03-01T07:30:08;19.90;48.40
53978;DHT22;39886;47.984;-1.586;2023-03-01T07:32:34;19.90;48.60
53978;DHT22;39886;47.984;-1.586;2023-03-01T07:34:59;19.90;48.70
53978;DHT22;39886;47.984;-1.586;2023-03-01T07:37:25;20.00;48.70
53978;DHT22;39886;47.984;-1.586;2023-03-01T07:39:51;20.00;48.50
53978;DHT22;39886;47.984;-1.586;2023-03-01T07:42:16;20.00;48.50
53978;DHT22;39886;47.984;-1.586;2023-03-01T07:44:42;20.00;48.70
53978;DHT22;39886;47.984;-1.586;2023-03-01T07:47:08;20.00;48.70
53978;DHT22;39886;47.984;-1.586;2023-03-01T07:49:34;20.00;48.60
53978;DHT22;39886;47.984;-1.586;2023-03-01T07:52:00;20.00;48.60
53978;DHT22;39886;47.984;-1.586;2023-03-01T07:54:26;20.00;48.40
53978;DHT22;39886;47.984;-1.586;2023-03-01T07:56:52;20.00;48.70
53978;DHT22;39886;47.984;-1.586;2023-03-01T07:59:17;20.00;48.70
53978;DHT22;39886;47.984;-1.586;2023-03-01T08:01:43;20.00;48.70
53978;DHT22;39886;47.984;-1.586;2023-03-01T08:04:09;20.00;48.70
53978;DHT22;39886;47.984;-1.586;2023-03-01T08:06:36;20.00;48.70
53978;DHT22;39886;47.984;-1.586;2023-03-01T08:09:02;20.10;48.50
53978;DHT22;39886;47.984;-1.586;2023-03-01T08:11:28;20.10;48.50
53978;DHT22;39886;47.984;-1.586;2023-03-01T08:13:54;20.10;48.60
53978;DHT22;39886;47.984;-1.586;2023-03-01T08:16:20;20.10;48.60
53978;DHT22;39886;47.984;-1.586;2023-03-01T08:18:46;20.10;48.60
53978;DHT22;39886;47.984;-1.586;2023-03-01T08:21:14;20.20;48.30
53978;DHT22;39886;47.984;-1.586;2023-03-01T08:23:41;20.20;48.50
53978;DHT22;39886;47.984;-1.586;2023-03-01T08:26:12;20.20;48.60
53978;DHT22;39886;47.984;-1.586;2023-03-01T08:28:38;20.20;48.60
53978;DHT22;39886;47.984;-1.586;2023-03-01T08:31:21;20.20;48.60
53978;DHT22;39886;47.984;-1.586;2023-03-01T08:33:49;20.30;48.70
53978;DHT22;39886;47.984;-1.586;2023-03-01T08:36:20;20.30;48.80
53978;DHT22;39886;47.984;-1.586;2023-03-01T08:38:47;20.30;48.90
53978;DHT22;39886;47.984;-1.586;2023-03-01T08:41:13;20.30;48.80
53978;DHT22;39886;47.984;-1.586;2023-03-01T08:43:40;20.30;48.70
53978;DHT22;39886;47.984;-1.586;2023-03-01T08:46:06;20.30;48.60
53978;DHT22;39886;47.984;-1.586;2023-03-01T08:48:31;20.30;48.60
53978;DHT22;39886;47.984;-1.586;2023-03-01T08:50:57;20.40;48.60
53978;DHT22;39886;47.984;-1.586;2023-03-01T08:53:31;20.40;48.90
53978;DHT22;39886;47.984;-1.586;2023-03-01T08:56:00;20.40;49.60
53978;DHT22;39886;47.984;-1.586;2023-03-01T08:58:28;20.40;48.80
53978;DHT22;39886;47.984;-1.586;2023-03-01T09:00:54;20.50;49.10
53978;DHT22;39886;47.984;-1.586;2023-03-01T09:03:22;20.50;49.00
53978;DHT22;39886;47.984;-1.586;2023-03-01T09:05:48;20.40;49.20
53978;DHT22;39886;47.984;-1.586;2023-03-01T09:08:18;20.50;49.00
53978;DHT22;39886;47.984;-1.586;2023-03-01T09:10:44;20.50;49.00
53978;DHT22;39886;47.984;-1.586;2023-03-01T09:13:11;20.50;49.10
53978;DHT22;39886;47.984;-1.586;2023-03-01T09:15:37;20.60;48.70
53978;DHT22;39886;47.984;-1.586;2023-03-01T09:18:04;20.60;48.80
53978;DHT22;39886;47.984;-1.586;2023-03-01T09:20:30;20.70;48.50
53978;DHT22;39886;47.984;-1.586;2023-03-01T09:22:57;20.70;49.00
53978;DHT22;39886;47.984;-1.586;2023-03-01T09:25:23;20.60;49.20
53978;DHT22;39886;47.984;-1.586;2023-03-01T09:27:51;20.60;49.20
53978;DHT22;39886;47.984;-1.586;2023-03-01T09:30:18;20.60;49.10
53978;DHT22;39886;47.984;-1.586;2023-03-01T09:32:44;20.60;49.00
53978;DHT22;39886;47.984;-1.586;2023-03-01T09:35:10;20.70;48.80
53978;DHT22;39886;47.984;-1.586;2023-03-01T09:37:37;20.70;49.00
53978;DHT22;39886;47.984;-1.586;2023-03-01T09:40:04;20.70;49.00
53978;DHT22;39886;47.984;-1.586;2023-03-01T09:42:34;20.70;49.00
53978;DHT22;39886;47.984;-1.586;2023-03-01T09:45:05;20.70;49.00
53978;DHT22;39886;47.984;-1.586;2023-03-01T09:47:34;20.70;49.00
53978;DHT22;39886;47.984;-1.586;2023-03-01T09:50:18;20.80;49.70
53978;DHT22;39886;47.984;-1.586;2023-03-01T09:55:20;20.80;49.00
53978;DHT22;39886;47.984;-1.586;2023-03-01T09:57:50;20.80;49.10
53978;DHT22;39886;47.984;-1.586;2023-03-01T10:03:30;20.90;49.20
53978;DHT22;39886;47.984;-1.586;2023-03-01T10:08:53;20.90;49.20
53978;DHT22;39886;47.984;-1.586;2023-03-01T10:11:24;20.90;49.20
53978;DHT22;39886;47.984;-1.586;2023-03-01T10:19:04;21.00;48.90
53978;DHT22;39886;47.984;-1.586;2023-03-01T10:21:43;21.00;48.90
53978;DHT22;39886;47.984;-1.586;2023-03-01T10:24:15;21.00;49.00
53978;DHT22;39886;47.984;-1.586;2023-03-01T10:27:19;21.00;49.10
53978;DHT22;39886;47.984;-1.586;2023-03-01T10:30:10;21.10;49.20
53978;DHT22;39886;47.984;-1.586;2023-03-01T10:32:39;21.10;49.20
53978;DHT22;39886;47.984;-1.586;2023-03-01T10:35:26;21.10;49.30
53978;DHT22;39886;47.984;-1.586;2023-03-01T10:40:24;21.10;49.40
53978;DHT22;39886;47.984;-1.586;2023-03-01T10:42:50;21.20;49.40
53978;DHT22;39886;47.984;-1.586;2023-03-01T10:48:14;21.20;49.40
53978;DHT22;39886;47.984;-1.586;2023-03-01T10:50:48;21.20;49.50
53978;DHT22;39886;47.984;-1.586;2023-03-01T10:56:11;21.30;49.50
53978;DHT22;39886;47.984;-1.586;2023-03-01T10:58:41;21.30;49.50
53978;DHT22;39886;47.984;-1.586;2023-03-01T11:06:32;21.40;50.10
53978;DHT22;39886;47.984;-1.586;2023-03-01T11:09:14;21.40;49.30
53978;DHT22;39886;47.984;-1.586;2023-03-01T11:11:41;21.40;49.40
53978;DHT22;39886;47.984;-1.586;2023-03-01T11:14:15;21.40;49.20
53978;DHT22;39886;47.984;-1.586;2023-03-01T11:16:44;21.40;48.70
53978;DHT22;39886;47.984;-1.586;2023-03-01T11:26:56;21.50;47.80
53978;DHT22;39886;47.984;-1.586;2023-03-01T11:29:37;21.50;47.70
53978;DHT22;39886;47.984;-1.586;2023-03-01T11:32:07;21.50;48.10
53978;DHT22;39886;47.984;-1.586;2023-03-01T11:37:22;21.60;47.70
53978;DHT22;39886;47.984;-1.586;2023-03-01T11:40:27;21.60;48.10
53978;DHT22;39886;47.984;-1.586;2023-03-01T11:48:53;21.70;47.80
53978;DHT22;39886;47.984;-1.586;2023-03-01T12:08:10;21.70;47.50
53978;DHT22;39886;47.984;-1.586;2023-03-01T12:10:42;21.80;47.40
53978;DHT22;39886;47.984;-1.586;2023-03-01T12:13:59;21.80;47.20
53978;DHT22;39886;47.984;-1.586;2023-03-01T12:19:21;21.90;47.20
53978;DHT22;39886;47.984;-1.586;2023-03-01T12:40:58;21.70;46.90
53978;DHT22;39886;47.984;-1.586;2023-03-01T12:43:31;21.60;47.10
53978;DHT22;39886;47.984;-1.586;2023-03-01T12:49:02;21.50;47.50
53978;DHT22;39886;47.984;-1.586;2023-03-01T12:51:33;21.40;47.40
53978;DHT22;39886;47.984;-1.586;2023-03-01T12:54:05;21.40;47.50
53978;DHT22;39886;47.984;-1.586;2023-03-01T12:56:35;21.30;47.30
53978;DHT22;39886;47.984;-1.586;2023-03-01T13:10:50;21.20;48.00
53978;DHT22;39886;47.984;-1.586;2023-03-01T13:13:22;21.20;47.90
53978;DHT22;39886;47.984;-1.586;2023-03-01T13:15:49;21.20;48.20
53978;DHT22;39886;47.984;-1.586;2023-03-01T13:23:28;21.10;48.40
53978;DHT22;39886;47.984;-1.586;2023-03-01T13:26:02;21.10;48.50
53978;DHT22;39886;47.984;-1.586;2023-03-01T13:31:08;21.10;48.80
53978;DHT22;39886;47.984;-1.586;2023-03-01T13:33:42;21.00;48.90
53978;DHT22;39886;47.984;-1.586;2023-03-01T13:36:09;21.00;48.80
53978;DHT22;39886;47.984;-1.586;2023-03-01T13:38:45;21.00;49.50
53978;DHT22;39886;47.984;-1.586;2023-03-01T13:41:17;21.00;49.00
53978;DHT22;39886;47.984;-1.586;2023-03-01T13:43:46;21.00;49.00
53978;DHT22;39886;47.984;-1.586;2023-03-01T13:46:22;21.00;49.00
53978;DHT22;39886;47.984;-1.586;2023-03-01T13:48:54;21.10;48.90
53978;DHT22;39886;47.984;-1.586;2023-03-01T13:51:23;21.20;48.60
53978;DHT22;39886;47.984;-1.586;2023-03-01T13:53:50;21.30;48.30
53978;DHT22;39886;47.984;-1.586;2023-03-01T13:56:25;21.40;48.10
53978;DHT22;39886;47.984;-1.586;2023-03-01T13:58:55;21.50;48.00
53978;DHT22;39886;47.984;-1.586;2023-03-01T14:01:27;21.60;47.80
53978;DHT22;39886;47.984;-1.586;2023-03-01T14:03:54;21.60;47.90
53978;DHT22;39886;47.984;-1.586;2023-03-01T14:06:25;21.70;47.70
53978;DHT22;39886;47.984;-1.586;2023-03-01T14:09:08;21.80;47.60
53978;DHT22;39886;47.984;-1.586;2023-03-01T14:19:30;22.10;47.30
53978;DHT22;39886;47.984;-1.586;2023-03-01T14:22:25;22.20;47.20
53978;DHT22;39886;47.984;-1.586;2023-03-01T14:25:04;22.30;46.80
53978;DHT22;39886;47.984;-1.586;2023-03-01T14:27:39;22.40;46.80
53978;DHT22;39886;47.984;-1.586;2023-03-01T14:30:30;22.50;46.70
53978;DHT22;39886;47.984;-1.586;2023-03-01T14:32:59;22.60;46.80
53978;DHT22;39886;47.984;-1.586;2023-03-01T14:35:31;22.70;46.30
53978;DHT22;39886;47.984;-1.586;2023-03-01T14:37:58;22.70;46.20
53978;DHT22;39886;47.984;-1.586;2023-03-01T14:40:35;22.70;46.20
53978;DHT22;39886;47.984;-1.586;2023-03-01T14:43:09;22.80;46.20
53978;DHT22;39886;47.984;-1.586;2023-03-01T14:45:35;22.80;46.00
53978;DHT22;39886;47.984;-1.586;2023-03-01T14:48:04;22.80;45.90
53978;DHT22;39886;47.984;-1.586;2023-03-01T14:50:34;22.80;46.10
53978;DHT22;39886;47.984;-1.586;2023-03-01T14:53:02;22.70;46.10
53978;DHT22;39886;47.984;-1.586;2023-03-01T14:55:35;22.70;46.10
53978;DHT22;39886;47.984;-1.586;2023-03-01T14:58:08;22.60;46.30
53978;DHT22;39886;47.984;-1.586;2023-03-01T15:00:35;22.50;46.30
53978;DHT22;39886;47.984;-1.586;2023-03-01T15:03:52;22.50;46.50
53978;DHT22;39886;47.984;-1.586;2023-03-01T15:05:54;22.40;46.70
53978;DHT22;39886;47.984;-1.586;2023-03-01T15:08:24;22.30;46.80
53978;DHT22;39886;47.984;-1.586;2023-03-01T15:10:59;22.30;46.90
53978;DHT22;39886;47.984;-1.586;2023-03-01T15:13:29;22.20;47.00
53978;DHT22;39886;47.984;-1.586;2023-03-01T15:16:03;22.10;47.20
53978;DHT22;39886;47.984;-1.586;2023-03-01T15:18:30;22.10;47.50
53978;DHT22;39886;47.984;-1.586;2023-03-01T15:20:56;22.00;47.30
53978;DHT22;39886;47.984;-1.586;2023-03-01T15:23:30;22.00;47.50
53978;DHT22;39886;47.984;-1.586;2023-03-01T15:25:57;21.90;47.60
53978;DHT22;39886;47.984;-1.586;2023-03-01T15:28:27;21.90;47.60
53978;DHT22;39886;47.984;-1.586;2023-03-01T15:31:20;21.80;47.90
53978;DHT22;39886;47.984;-1.586;2023-03-01T15:33:47;21.80;47.80
53978;DHT22;39886;47.984;-1.586;2023-03-01T15:36:33;21.70;47.80
53978;DHT22;39886;47.984;-1.586;2023-03-01T15:39:02;21.70;48.10
53978;DHT22;39886;47.984;-1.586;2023-03-01T15:41:31;21.70;48.10
53978;DHT22;39886;47.984;-1.586;2023-03-01T15:44:00;21.60;48.30
53978;DHT22;39886;47.984;-1.586;2023-03-01T15:46:31;21.60;48.60
53978;DHT22;39886;47.984;-1.586;2023-03-01T15:49:04;21.50;48.30
53978;DHT22;39886;47.984;-1.586;2023-03-01T15:51:35;21.50;48.80
53978;DHT22;39886;47.984;-1.586;2023-03-01T15:54:08;21.40;48.80
53978;DHT22;39886;47.984;-1.586;2023-03-01T15:56:36;21.40;49.70
53978;DHT22;39886;47.984;-1.586;2023-03-01T15:59:02;21.40;49.00
53978;DHT22;39886;47.984;-1.586;2023-03-01T16:01:28;21.30;49.00
53978;DHT22;39886;47.984;-1.586;2023-03-01T16:03:54;21.30;49.30
53978;DHT22;39886;47.984;-1.586;2023-03-01T16:06:21;21.30;49.40
53978;DHT22;39886;47.984;-1.586;2023-03-01T16:08:47;21.20;49.40
53978;DHT22;39886;47.984;-1.586;2023-03-01T16:11:32;21.20;49.60
53978;DHT22;39886;47.984;-1.586;2023-03-01T16:13:59;21.10;49.70
53978;DHT22;39886;47.984;-1.586;2023-03-01T16:16:25;21.10;49.80
53978;DHT22;39886;47.984;-1.586;2023-03-01T16:18:51;21.10;49.70
53978;DHT22;39886;47.984;-1.586;2023-03-01T16:21:22;21.10;49.70
53978;DHT22;39886;47.984;-1.586;2023-03-01T16:23:48;21.20;49.60
53978;DHT22;39886;47.984;-1.586;2023-03-01T16:26:15;21.30;49.60
53978;DHT22;39886;47.984;-1.586;2023-03-01T16:28:42;21.40;49.40
53978;DHT22;39886;47.984;-1.586;2023-03-01T16:31:08;21.40;49.30
53978;DHT22;39886;47.984;-1.586;2023-03-01T16:33:34;21.50;49.30
53978;DHT22;39886;47.984;-1.586;2023-03-01T16:36:06;21.50;48.90
53978;DHT22;39886;47.984;-1.586;2023-03-01T16:38:31;21.60;48.70
53978;DHT22;39886;47.984;-1.586;2023-03-01T16:40:58;21.60;48.90
53978;DHT22;39886;47.984;-1.586;2023-03-01T16:43:23;21.60;48.90
53978;DHT22;39886;47.984;-1.586;2023-03-01T16:45:49;21.60;48.80
53978;DHT22;39886;47.984;-1.586;2023-03-01T16:48:15;21.60;48.80
53978;DHT22;39886;47.984;-1.586;2023-03-01T16:50:41;21.60;48.70
53978;DHT22;39886;47.984;-1.586;2023-03-01T16:53:06;21.70;48.30
53978;DHT22;39886;47.984;-1.586;2023-03-01T16:55:32;21.70;48.30
53978;DHT22;39886;47.984;-1.586;2023-03-01T16:57:58;21.70;48.30
53978;DHT22;39886;47.984;-1.586;2023-03-01T17:00:24;21.70;48.10
53978;DHT22;39886;47.984;-1.586;2023-03-01T17:02:50;21.70;48.10
53978;DHT22;39886;47.984;-1.586;2023-03-01T17:05:17;21.70;47.90
53978;DHT22;39886;47.984;-1.586;2023-03-01T17:07:43;21.70;47.90
53978;DHT22;39886;47.984;-1.586;2023-03-01T17:10:10;21.80;48.10
53978;DHT22;39886;47.984;-1.586;2023-03-01T17:12:36;21.70;48.00
53978;DHT22;39886;47.984;-1.586;2023-03-01T17:15:03;21.70;48.00
53978;DHT22;39886;47.984;-1.586;2023-03-01T17:17:29;21.80;48.10
53978;DHT22;39886;47.984;-1.586;2023-03-01T17:19:55;21.80;48.00
53978;DHT22;39886;47.984;-1.586;2023-03-01T17:22:21;21.80;48.00
53978;DHT22;39886;47.984;-1.586;2023-03-01T17:24:47;21.80;48.10
53978;DHT22;39886;47.984;-1.586;2023-03-01T17:27:13;21.80;48.10
53978;DHT22;39886;47.984;-1.586;2023-03-01T17:29:40;21.80;48.20
53978;DHT22;39886;47.984;-1.586;2023-03-01T17:32:07;21.80;47.80